createdAt,value
2023-02-25T00:02:03.522Z,97908.85
2023-02-25T00:04:33.085Z,97905.77
2023-02-25T00:07:22.990Z,97901.33
2023-02-25T00:09:53.703Z,97904.70
2023-02-25T00:12:24.234Z,97907.41
2023-02-25T00:14:52.931Z,97900.95
2023-02-25T00:17:21.508Z,97901.55
2023-02-25T00:19:50.902Z,97900.96
2023-02-25T00:22:21.544Z,97892.52
2023-02-25T00:24:56.839Z,97886.06
2023-02-25T00:27:25.787Z,97894.96
2023-02-25T00:29:54.880Z,97884.98
2023-02-25T00:32:24.308Z,97887.20
2023-02-25T00:34:53.397Z,97880.38
2023-02-25T00:37:21.867Z,97881.86
2023-02-25T00:39:50.249Z,97879.48
2023-02-25T00:42:19.040Z,97879.48
2023-02-25T00:44:50.088Z,97873.23
2023-02-25T00:47:19.541Z,97870.88
2023-02-25T00:49:53.603Z,97867.33
2023-02-25T00:52:22.090Z,97864.02
2023-02-25T00:54:50.564Z,97862.04
2023-02-25T00:57:19.251Z,97861.40
2023-02-25T00:59:47.736Z,97856.70
2023-02-25T01:02:17.146Z,97850.53
2023-02-25T01:04:45.516Z,97848.03
2023-02-25T01:07:14.408Z,97847.15
2023-02-25T01:09:44.341Z,97851.11
2023-02-25T01:12:13.317Z,97829.42
2023-02-25T01:14:41.801Z,97846.64
2023-02-25T01:17:10.184Z,97840.34
2023-02-25T01:19:42.040Z,97840.82
2023-02-25T01:22:11.056Z,97838.64
2023-02-25T01:24:39.422Z,97837.77
2023-02-25T01:27:08.950Z,97831.44
2023-02-25T01:29:39.655Z,97822.30
2023-02-25T01:32:11.483Z,97820.29
2023-02-25T01:34:40.923Z,97815.17
2023-02-25T01:37:12.071Z,97812.34
2023-02-25T01:39:41.783Z,97806.39
2023-02-25T01:42:13.999Z,97806.44
2023-02-25T01:45:13.669Z,97810.94
2023-02-25T01:47:57.107Z,97770.71
2023-02-25T01:50:27.635Z,97797.16
2023-02-25T01:52:56.322Z,97798.05
2023-02-25T01:55:24.907Z,97791.94
2023-02-25T01:57:53.292Z,97786.04
2023-02-25T02:00:23.108Z,97789.83
2023-02-25T02:02:54.883Z,97782.83
2023-02-25T02:05:23.969Z,97778.64
2023-02-25T02:07:52.339Z,97778.28
2023-02-25T02:10:22.465Z,97781.34
2023-02-25T02:12:50.947Z,97777.41
2023-02-25T02:15:19.325Z,97770.72
2023-02-25T02:18:00.918Z,97761.14
2023-02-25T02:20:52.350Z,97759.41
2023-02-25T02:23:30.854Z,97759.57
2023-02-25T02:26:21.941Z,97755.83
2023-02-25T02:29:27.117Z,97748.52
2023-02-25T02:32:16.172Z,97744.04
2023-02-25T02:35:00.331Z,97745.23
2023-02-25T02:37:38.846Z,97739.90
2023-02-25T02:40:22.572Z,97744.79
2023-02-25T02:43:29.263Z,97737.14
2023-02-25T02:46:23.681Z,97737.54
2023-02-25T02:49:03.808Z,97738.15
2023-02-25T02:51:36.909Z,97735.21
2023-02-25T02:54:06.914Z,97739.86
2023-02-25T02:56:39.494Z,97734.23
2023-02-25T02:59:12.608Z,97739.67
2023-02-25T03:01:46.909Z,97743.20
2023-02-25T03:04:17.518Z,97744.71
2023-02-25T03:06:50.320Z,97736.56
2023-02-25T03:09:24.231Z,97725.55
2023-02-25T03:11:55.382Z,97728.58
2023-02-25T03:14:24.577Z,97724.32
2023-02-25T03:17:14.155Z,97722.56
2023-02-25T03:19:58.816Z,97715.89
2023-02-25T03:22:30.077Z,97718.66
2023-02-25T03:25:24.356Z,97712.39
2023-02-25T03:27:54.172Z,97711.06
2023-02-25T03:30:43.397Z,97714.02
2023-02-25T03:33:37.831Z,97713.33
2023-02-25T03:36:12.286Z,97707.27
2023-02-25T03:38:44.024Z,97706.96
2023-02-25T03:41:15.573Z,97706.39
2023-02-25T03:43:54.016Z,97702.42
2023-02-25T03:46:22.710Z,97697.70
2023-02-25T03:48:52.491Z,97691.31
2023-02-25T03:51:24.050Z,97678.88
2023-02-25T03:53:52.734Z,97676.33
2023-02-25T03:56:27.053Z,97678.79
2023-02-25T03:58:55.753Z,97684.09
2023-02-25T04:01:26.994Z,97675.34
2023-02-25T04:03:55.370Z,97676.20
2023-02-25T04:06:25.800Z,97670.63
2023-02-25T04:08:54.901Z,97668.79
2023-02-25T04:11:24.295Z,97662.91
2023-02-25T04:13:53.904Z,97658.77
2023-02-25T04:16:23.194Z,97650.20
2023-02-25T04:18:55.683Z,97652.42
2023-02-25T04:21:35.590Z,97652.88
2023-02-25T04:24:06.921Z,97645.64
2023-02-25T04:26:35.368Z,97632.13
2023-02-25T04:29:04.161Z,97624.17
2023-02-25T04:31:34.611Z,97623.93
2023-02-25T04:34:03.798Z,97622.71
2023-02-25T04:36:34.023Z,97627.75
2023-02-25T04:39:04.526Z,97622.02
2023-02-25T04:41:34.198Z,97620.88
2023-02-25T04:44:05.507Z,97623.38
2023-02-25T04:46:38.839Z,97630.63
2023-02-25T04:49:07.381Z,97632.45
2023-02-25T04:51:37.116Z,97635.27
2023-02-25T04:54:06.202Z,97633.82
2023-02-25T04:56:36.314Z,97628.58
2023-02-25T04:59:05.878Z,97629.51
2023-02-25T05:01:34.458Z,97632.69
2023-02-25T05:04:03.301Z,97633.78
2023-02-25T05:06:31.988Z,97629.08
2023-02-25T05:09:00.577Z,97633.23
2023-02-25T05:11:31.107Z,97647.77
2023-02-25T05:13:59.695Z,97644.36
2023-02-25T05:16:28.205Z,97636.69
2023-02-25T05:18:58.104Z,97634.84
2023-02-25T05:21:27.093Z,97634.88
2023-02-25T05:23:55.515Z,97635.20
2023-02-25T05:26:25.147Z,97625.34
2023-02-25T05:28:55.919Z,97618.70
2023-02-25T05:31:25.534Z,97617.66
2023-02-25T05:33:54.232Z,97607.34
2023-02-25T05:36:25.277Z,97602.86
2023-02-25T05:39:02.970Z,97599.80
2023-02-25T05:41:33.291Z,97606.05
2023-02-25T05:44:01.765Z,97603.98
2023-02-25T05:46:30.589Z,97595.60
2023-02-25T05:48:59.040Z,97594.20
2023-02-25T05:51:27.726Z,97593.41
2023-02-25T05:53:57.568Z,97585.44
2023-02-25T05:56:30.046Z,97589.35
2023-02-25T05:59:00.258Z,97593.05
2023-02-25T06:01:29.774Z,97586.36
2023-02-25T06:03:59.156Z,97573.35
2023-02-25T06:06:29.080Z,97566.12
2023-02-25T06:08:57.510Z,97573.95
2023-02-25T06:11:27.984Z,97583.46
2023-02-25T06:13:56.975Z,97580.65
2023-02-25T06:16:32.646Z,97587.52
2023-02-25T06:19:02.663Z,97584.11
2023-02-25T06:21:34.181Z,97560.84
2023-02-25T06:24:05.308Z,97576.31
2023-02-25T06:26:35.671Z,97578.48
2023-02-25T06:29:04.259Z,97571.62
2023-02-25T06:31:34.835Z,97560.77
2023-02-25T06:34:03.789Z,97551.21
2023-02-25T06:36:32.474Z,97547.45
2023-02-25T06:39:01.162Z,97541.66
2023-02-25T06:41:30.156Z,97535.46
2023-02-25T06:43:59.510Z,97534.94
2023-02-25T06:46:28.317Z,97538.58
2023-02-25T06:48:57.588Z,97536.91
2023-02-25T06:51:26.445Z,97531.16
2023-02-25T06:53:55.154Z,97524.44
2023-02-25T06:56:24.227Z,97519.85
2023-02-25T06:58:53.581Z,97513.58
2023-02-25T07:01:22.054Z,97508.06
2023-02-25T07:03:51.325Z,97508.35
2023-02-25T07:06:19.714Z,97505.67
2023-02-25T07:08:48.290Z,97509.96
2023-02-25T07:11:18.400Z,97514.16
2023-02-25T07:13:48.254Z,97502.69
2023-02-25T07:16:17.530Z,97496.92
2023-02-25T07:18:51.327Z,97486.08
2023-02-25T07:21:20.609Z,97491.86
2023-02-25T07:23:49.220Z,97488.06
2023-02-25T07:26:18.107Z,97479.80
2023-02-25T07:28:48.538Z,97478.25
2023-02-25T07:31:18.850Z,97473.48
2023-02-25T07:33:51.543Z,97468.33
2023-02-25T07:36:20.443Z,97470.77
2023-02-25T07:38:48.919Z,97459.91
2023-02-25T07:41:18.316Z,97457.45
2023-02-25T07:43:47.392Z,97458.47
2023-02-25T07:46:19.854Z,97445.61
2023-02-25T07:48:48.996Z,97445.52
2023-02-25T07:51:19.833Z,97442.19
2023-02-25T07:53:50.574Z,97443.89
2023-02-25T07:56:21.236Z,97430.62
2023-02-25T07:58:49.796Z,97448.05
2023-02-25T08:01:29.344Z,97446.48
2023-02-25T08:03:59.656Z,97448.29
2023-02-25T08:06:28.168Z,97444.19
2023-02-25T08:08:56.629Z,97439.08
2023-02-25T08:11:26.363Z,97437.62
2023-02-25T08:13:54.840Z,97432.46
2023-02-25T08:16:23.509Z,97423.88
2023-02-25T08:18:54.343Z,97415.21
2023-02-25T08:21:24.061Z,97417.33
2023-02-25T08:23:53.155Z,97415.80
2023-02-25T08:26:22.874Z,97393.94
2023-02-25T08:28:51.509Z,97405.42
2023-02-25T08:31:20.317Z,97404.36
2023-02-25T08:33:49.849Z,97398.98
2023-02-25T08:36:27.077Z,97399.38
2023-02-25T08:38:57.285Z,97398.21
2023-02-25T08:41:26.733Z,97389.75
2023-02-25T08:43:56.073Z,97383.52
2023-02-25T08:46:28.906Z,97373.73
2023-02-25T08:48:57.572Z,97375.50
2023-02-25T08:51:34.375Z,97373.63
2023-02-25T08:54:08.037Z,97374.71
2023-02-25T08:56:36.495Z,97369.00
2023-02-25T08:59:05.382Z,97366.64
2023-02-25T09:01:46.008Z,97362.35
2023-02-25T09:04:19.398Z,97360.38
2023-02-25T09:06:47.929Z,97347.19
2023-02-25T09:09:17.282Z,97345.05
2023-02-25T09:11:46.227Z,97343.30
2023-02-25T09:14:16.667Z,97339.13
2023-02-25T09:16:47.045Z,97331.03
2023-02-25T09:19:18.258Z,97326.76
2023-02-25T09:21:48.443Z,97315.29
2023-02-25T09:24:17.863Z,97306.88
2023-02-25T09:26:46.706Z,97303.59
2023-02-25T09:29:15.021Z,97296.10
2023-02-25T09:31:43.570Z,97292.54
2023-02-25T09:34:15.575Z,97287.83
2023-02-25T09:36:44.458Z,97291.63
2023-02-25T09:39:13.356Z,97290.92
2023-02-25T09:41:50.642Z,97283.64
2023-02-25T09:44:29.160Z,97277.76
2023-02-25T09:47:16.619Z,97275.73
2023-02-25T09:49:49.674Z,97269.98
2023-02-25T09:52:25.118Z,97261.86
2023-02-25T09:54:55.985Z,97256.15
2023-02-25T09:57:24.647Z,97250.20
2023-02-25T09:59:53.845Z,97246.39
2023-02-25T10:02:28.222Z,97245.80
2023-02-25T10:05:11.604Z,97236.66
2023-02-25T10:07:48.541Z,97232.09
2023-02-25T10:10:23.854Z,97225.34
2023-02-25T10:13:11.255Z,97213.63
2023-02-25T10:16:01.668Z,97207.13
2023-02-25T10:18:43.613Z,97206.75
2023-02-25T10:21:16.335Z,97195.75
2023-02-25T10:23:50.759Z,97179.42
2023-02-25T10:26:24.731Z,97173.20
2023-02-25T10:28:59.779Z,97171.01
2023-02-25T10:31:30.245Z,97157.81
2023-02-25T10:34:03.068Z,97158.54
2023-02-25T10:36:34.975Z,97162.27
2023-02-25T10:39:04.796Z,97153.58
2023-02-25T10:41:33.184Z,97148.67
2023-02-25T10:44:01.568Z,97147.00
2023-02-25T10:46:35.063Z,97140.27
2023-02-25T10:49:25.560Z,97140.24
2023-02-25T10:52:18.526Z,97134.05
2023-02-25T10:54:53.040Z,97134.55
2023-02-25T10:57:29.205Z,97127.25
2023-02-25T11:00:13.556Z,97132.67
2023-02-25T11:02:43.932Z,97129.05
2023-02-25T11:05:31.721Z,97131.50
2023-02-25T11:08:00.210Z,97109.05
2023-02-25T11:13:30.532Z,97121.75
2023-02-25T11:16:00.142Z,97114.79
2023-02-25T11:18:32.687Z,97120.99
2023-02-25T11:21:13.318Z,97112.73
2023-02-25T11:23:41.895Z,97107.98
2023-02-25T11:26:34.167Z,97101.64
2023-02-25T11:29:10.672Z,97098.86
2023-02-25T11:31:41.151Z,97096.27
2023-02-25T11:34:29.022Z,97089.16
2023-02-25T11:37:00.135Z,97092.70
2023-02-25T11:39:31.678Z,97085.95
2023-02-25T11:42:26.679Z,97078.20
2023-02-25T11:45:05.301Z,97074.49
2023-02-25T11:47:34.968Z,97066.86
2023-02-25T11:50:24.420Z,97066.85
2023-02-25T11:53:18.735Z,97061.35
2023-02-25T11:56:10.101Z,97063.69
2023-02-25T11:59:07.466Z,97060.60
2023-02-25T12:01:46.799Z,97058.86
2023-02-25T12:04:15.084Z,97063.00
2023-02-25T12:07:13.053Z,97060.70
2023-02-25T12:09:50.649Z,97060.17
2023-02-25T12:12:59.792Z,97056.99
2023-02-25T12:15:50.110Z,97051.16
2023-02-25T12:18:22.366Z,97050.60
2023-02-25T12:21:15.108Z,97045.91
2023-02-25T12:24:21.688Z,97049.39
2023-02-25T12:26:56.313Z,97043.02
2023-02-25T12:29:43.435Z,97042.38
2023-02-25T12:32:40.485Z,97035.16
2023-02-25T12:35:36.930Z,97035.94
2023-02-25T12:38:52.823Z,97030.98
2023-02-25T12:41:29.806Z,97022.35
2023-02-25T12:44:33.314Z,97023.41
2023-02-25T12:47:18.186Z,97019.52
2023-02-25T12:50:15.234Z,97011.51
2023-02-25T12:53:08.497Z,97010.00
2023-02-25T12:56:00.844Z,97003.69
2023-02-25T12:58:44.992Z,97002.52
2023-02-25T13:01:19.348Z,97000.67
2023-02-25T13:04:16.417Z,96998.08
2023-02-25T13:06:59.730Z,96994.16
2023-02-25T13:09:50.509Z,96991.36
2023-02-25T13:12:37.681Z,96984.73
2023-02-25T13:15:26.185Z,96979.98
2023-02-25T13:18:32.607Z,96976.61
2023-02-25T13:21:32.846Z,96975.98
2023-02-25T13:24:28.917Z,96969.18
2023-02-25T13:27:03.443Z,96966.27
2023-02-25T13:29:59.370Z,96957.46
2023-02-25T13:32:33.109Z,96945.92
2023-02-25T13:35:16.306Z,96943.20
2023-02-25T13:38:04.963Z,96935.50
2023-02-25T13:40:36.519Z,96927.16
2023-02-25T13:43:20.776Z,96926.84
2023-02-25T13:46:02.602Z,96919.48
2023-02-25T13:48:39.554Z,96916.24
2023-02-25T13:51:11.750Z,96917.27
2023-02-25T13:54:02.018Z,96909.91
2023-02-25T13:56:40.028Z,96908.74
2023-02-25T13:59:36.681Z,96907.56
2023-02-25T14:02:23.818Z,96909.36
2023-02-25T14:05:13.983Z,96901.06
2023-02-25T14:07:53.015Z,96895.42
2023-02-25T14:10:25.090Z,96891.49
2023-02-25T14:13:05.037Z,96890.30
2023-02-25T14:16:07.500Z,96881.58
2023-02-25T14:18:45.317Z,96871.87
2023-02-25T14:21:41.149Z,96868.83
2023-02-25T14:24:09.714Z,96857.86
2023-02-25T14:27:06.276Z,96853.33
2023-02-25T14:29:55.753Z,96842.35
2023-02-25T14:32:36.632Z,96838.87
2023-02-25T14:35:34.308Z,96836.38
2023-02-25T14:38:36.464Z,96833.58
2023-02-25T14:41:21.816Z,96827.76
2023-02-25T14:43:50.326Z,96819.55
2023-02-25T14:46:40.722Z,96809.17
2023-02-25T14:49:29.351Z,96800.90
2023-02-25T14:52:12.625Z,96797.56
2023-02-25T14:55:05.056Z,96795.91
2023-02-25T14:57:50.611Z,96788.86
2023-02-25T15:01:02.360Z,96783.89
2023-02-25T15:03:43.327Z,96775.86
2023-02-25T15:06:53.395Z,96772.38
2023-02-25T15:09:37.730Z,96768.44
2023-02-25T15:12:28.543Z,96768.77
2023-02-25T15:15:16.174Z,96771.94
2023-02-25T15:17:56.742Z,96767.82
2023-02-25T15:20:41.559Z,96806.69
2023-02-25T15:23:11.987Z,96905.90
2023-02-25T15:25:53.408Z,96935.17
2023-02-25T15:28:29.302Z,96971.20
2023-02-25T15:31:01.231Z,96987.45
2023-02-25T15:33:39.969Z,96995.99
2023-02-25T15:36:15.042Z,97009.48
2023-02-25T15:38:47.870Z,97015.42
2023-02-25T15:41:34.931Z,97015.70
2023-02-25T15:44:28.793Z,97019.45
2023-02-25T15:47:23.087Z,97017.19
2023-02-25T15:49:52.110Z,97028.60
2023-02-25T15:52:54.356Z,97025.60
2023-02-25T15:55:40.479Z,97035.21
2023-02-25T15:58:24.215Z,97044.61
2023-02-25T16:00:52.993Z,97064.29
2023-02-25T16:03:41.951Z,97078.56
2023-02-25T16:06:13.198Z,97056.98
2023-02-25T16:08:54.068Z,97047.70
2023-02-25T16:11:26.682Z,97037.18
2023-02-25T16:13:55.137Z,97041.65
2023-02-25T16:16:23.890Z,97053.58
2023-02-25T16:18:52.514Z,97054.12
2023-02-25T16:21:23.045Z,97066.20
2023-02-25T16:23:52.038Z,97053.82
2023-02-25T16:26:39.264Z,97066.98
2023-02-25T16:29:43.276Z,97087.50
2023-02-25T16:32:33.249Z,97085.27
2023-02-25T16:35:34.311Z,97092.73
2023-02-25T16:38:12.421Z,97099.33
2023-02-25T16:40:42.298Z,97109.39
2023-02-25T16:43:17.996Z,97124.09
2023-02-25T16:45:58.291Z,97145.82
2023-02-25T16:48:49.055Z,97172.45
2023-02-25T16:51:34.740Z,97197.96
2023-02-25T16:54:40.010Z,97219.77
2023-02-25T16:57:20.349Z,97230.04
2023-02-25T16:59:51.081Z,97232.61
2023-02-25T17:02:24.464Z,97223.98
2023-02-25T17:04:54.331Z,97225.14
2023-02-25T17:07:23.296Z,97231.16
2023-02-25T17:10:01.019Z,97228.37
2023-02-25T17:12:43.801Z,97211.14
2023-02-25T17:15:16.285Z,97210.31
2023-02-25T17:17:44.588Z,97210.41
2023-02-25T17:20:16.336Z,97227.92
2023-02-25T17:22:45.114Z,97237.94
2023-02-25T17:25:16.250Z,97249.95
2023-02-25T17:27:50.581Z,97255.11
2023-02-25T17:30:39.725Z,97246.45
2023-02-25T17:33:22.425Z,97238.95
2023-02-25T17:35:52.589Z,97232.96
2023-02-25T17:38:22.208Z,97228.89
2023-02-25T17:40:55.495Z,97229.08
2023-02-25T17:43:25.825Z,97230.94
2023-02-25T17:45:57.822Z,97223.50
2023-02-25T17:48:33.341Z,97229.99
2023-02-25T17:51:06.322Z,97236.93
2023-02-25T17:53:39.566Z,97244.83
2023-02-25T17:56:26.527Z,97239.71
2023-02-25T17:59:05.254Z,97255.20
2023-02-25T18:01:54.318Z,97278.47
2023-02-25T18:04:32.948Z,97287.73
2023-02-25T18:07:33.478Z,97299.36
2023-02-25T18:10:01.857Z,97272.33
2023-02-25T18:12:32.621Z,97271.44
2023-02-25T18:15:02.227Z,97291.23
2023-02-25T18:17:31.831Z,97296.19
2023-02-25T18:20:06.269Z,97295.89
2023-02-25T18:22:41.474Z,97300.98
2023-02-25T18:25:43.057Z,97306.39
2023-02-25T18:28:14.003Z,97324.27
2023-02-25T18:30:43.182Z,97329.05
2023-02-25T18:33:11.763Z,97324.14
2023-02-25T18:35:40.787Z,97328.65
2023-02-25T18:38:17.117Z,97337.55
2023-02-25T18:40:47.135Z,97340.65
2023-02-25T18:43:19.315Z,97340.34
2023-02-25T18:45:47.788Z,97345.15
2023-02-25T18:48:16.471Z,97347.86
2023-02-25T18:50:44.900Z,97341.27
2023-02-25T18:53:18.483Z,97340.85
2023-02-25T18:55:52.168Z,97343.00
2023-02-25T18:58:25.163Z,97341.05
2023-02-25T19:00:57.918Z,97342.46
2023-02-25T19:03:29.282Z,97352.73
2023-02-25T19:05:57.770Z,97361.81
2023-02-25T19:08:28.294Z,97372.48
2023-02-25T19:10:56.775Z,97376.19
2023-02-25T19:13:31.885Z,97392.65
2023-02-25T19:16:01.298Z,97404.50
2023-02-25T19:18:30.012Z,97412.32
2023-02-25T19:20:59.836Z,97416.38
2023-02-25T19:23:29.224Z,97421.12
2023-02-25T19:25:59.550Z,97421.80
2023-02-25T19:28:27.916Z,97420.20
2023-02-25T19:30:56.638Z,97416.84
2023-02-25T19:33:25.100Z,97416.23
2023-02-25T19:35:53.482Z,97423.01
2023-02-25T19:38:22.066Z,97426.74
2023-02-25T19:40:50.645Z,97430.05
2023-02-25T19:43:19.228Z,97442.55
2023-02-25T19:45:47.854Z,97443.61
2023-02-25T19:48:16.193Z,97449.48
2023-02-25T19:50:44.984Z,97451.81
2023-02-25T19:53:14.691Z,97456.13
2023-02-25T19:55:43.978Z,97441.16
2023-02-25T19:58:12.369Z,97458.58
2023-02-25T20:00:46.258Z,97464.56
2023-02-25T20:03:15.498Z,97466.02
2023-02-25T20:05:45.003Z,97469.64
2023-02-25T20:08:13.574Z,97477.20
2023-02-25T20:10:43.414Z,97478.98
2023-02-25T20:13:11.868Z,97485.60
2023-02-25T20:15:40.566Z,97486.10
2023-02-25T20:18:08.933Z,97489.01
2023-02-25T20:20:41.799Z,97490.16
2023-02-25T20:23:10.203Z,97492.63
2023-02-25T20:25:44.318Z,97491.14
2023-02-25T20:28:13.412Z,97490.58
2023-02-25T20:30:41.844Z,97490.34
2023-02-25T20:33:10.377Z,97499.34
2023-02-25T20:35:39.473Z,97500.44
2023-02-25T20:38:27.514Z,97501.55
2023-02-25T20:40:57.018Z,97503.13
2023-02-25T20:43:25.917Z,97508.82
2023-02-25T20:45:54.424Z,97514.29
2023-02-25T20:48:28.297Z,97512.72
2023-02-25T20:50:57.236Z,97523.19
2023-02-25T20:53:25.793Z,97524.14
2023-02-25T20:55:57.447Z,97524.66
2023-02-25T20:58:25.814Z,97525.33
2023-02-25T21:00:54.272Z,97528.75
2023-02-25T21:03:22.677Z,97531.69
2023-02-25T21:05:51.265Z,97530.87
2023-02-25T21:08:19.639Z,97536.31
2023-02-25T21:10:49.349Z,97546.90
2023-02-25T21:13:17.729Z,97553.39
2023-02-25T21:15:47.133Z,97562.85
2023-02-25T21:18:16.756Z,97567.08
2023-02-25T21:20:45.647Z,97574.92
2023-02-25T21:23:14.627Z,97582.60
2023-02-25T21:25:43.727Z,97591.09
2023-02-25T21:28:17.230Z,97598.20
2023-02-25T21:30:45.738Z,97600.89
2023-02-25T21:33:15.045Z,97598.88
2023-02-25T21:35:44.619Z,97600.03
2023-02-25T21:38:14.535Z,97607.52
2023-02-25T21:40:42.916Z,97612.39
2023-02-25T21:43:11.508Z,97611.42
2023-02-25T21:45:40.387Z,97608.31
2023-02-25T21:48:09.282Z,97612.08
2023-02-25T21:50:45.102Z,97616.66
2023-02-25T21:53:16.177Z,97612.80
2023-02-25T21:55:48.549Z,97613.80
2023-02-25T21:58:18.979Z,97617.52
2023-02-25T22:00:47.371Z,97621.98
2023-02-25T22:03:16.455Z,97629.05
2023-02-25T22:05:46.388Z,97637.58
2023-02-25T22:08:15.367Z,97630.34
2023-02-25T22:10:43.707Z,97632.02
2023-02-25T22:13:12.123Z,97640.30
2023-02-25T22:15:40.741Z,97633.15
2023-02-25T22:18:10.420Z,97635.96
2023-02-25T22:20:43.511Z,97638.95
2023-02-25T22:23:11.996Z,97640.13
2023-02-25T22:25:40.850Z,97636.57
2023-02-25T22:28:09.674Z,97632.09
2023-02-25T22:30:38.480Z,97641.94
2023-02-25T22:33:06.846Z,97647.04
2023-02-25T22:35:35.574Z,97650.70
2023-02-25T22:38:03.965Z,97651.91
2023-02-25T22:40:32.706Z,97650.86
2023-02-25T22:43:01.183Z,97651.17
2023-02-25T22:45:29.666Z,97649.42
2023-02-25T22:47:58.151Z,97647.98
2023-02-25T22:50:29.292Z,97653.40
2023-02-25T22:52:57.680Z,97650.52
2023-02-25T22:55:25.970Z,97649.73
2023-02-25T22:57:54.945Z,97652.64
2023-02-25T23:00:24.244Z,97657.27
2023-02-25T23:02:56.230Z,97668.74
2023-02-25T23:05:24.584Z,97674.80
2023-02-25T23:07:54.401Z,97673.23
2023-02-25T23:10:24.234Z,97674.55
2023-02-25T23:12:52.903Z,97671.14
2023-02-25T23:15:21.276Z,97677.38
2023-02-25T23:17:49.864Z,97697.60
2023-02-25T23:20:18.958Z,97705.82
2023-02-25T23:22:47.738Z,97697.15
2023-02-25T23:25:16.538Z,97695.94
2023-02-25T23:27:44.921Z,97693.92
2023-02-25T23:31:24.734Z,97690.21
2023-02-25T23:34:00.670Z,97686.28
2023-02-25T23:36:29.417Z,97689.20
2023-02-25T23:38:59.366Z,97695.05
2023-02-25T23:41:28.207Z,97703.15
2023-02-25T23:43:58.982Z,97706.45
2023-02-25T23:46:29.589Z,97701.69
2023-02-25T23:48:59.321Z,97711.52
2023-02-25T23:51:27.886Z,97711.86
2023-02-25T23:53:59.029Z,97725.31
2023-02-25T23:56:28.411Z,97702.17
2023-02-25T23:58:57.222Z,97718.58
